Fluvius Axe — C6AZ6 — position and weather

sailwx.info

Track history (hours):
 
Tides and Currents Weather Stations Pressure Air Temp Water Temp Dewpoint Dewpoint Depression Visibility Wind Speed Wind Dir Waves Ship Positions

Fluvius Axe

Last reported at 2018-Jun-16 15:04 UTC. Time now 2018-Jun-18 17:38 UTC.
Position N 43°42' W 005°51'.

Length 88 m; draft 3.8 m.

Type: Cargo ship. MMSI: 311000201.

Date/timePositionNaut miles runAvg speedWind from/ knotsBaromVisibWave heightAir tempDewpointWater temp
2018-Jun-16 15:04N 43°42' W 005°51'110.2
2018-Jun-16 14:59N 43°42' W 005°50'610.6
2018-Jun-16 14:28N 43°42' W 005°43'710.7
2018-Jun-16 13:50N 43°41' W 005°33'410.7
2018-Jun-16 13:26N 43°40' W 005°28'510.6
2018-Jun-16 12:59N 43°40' W 005°21'  
2018-Jun-10 07:49N 43°33' W 003°46'311.1
2018-Jun-10 07:30N 43°36' W 003°48'14110.9
2018-Jun-09 18:37N 45°50' W 004°47'111.1
2018-Jun-09 18:30N 45°51' W 004°48'42010.7
2018-Jun-08 03:20N 52°50' W 005°45'310.2
2018-Jun-08 03:00N 52°53' W 005°48'5 9.7
2018-Jun-08 02:30N 52°57' W 005°52'4 8.8
2018-Jun-08 02:00N 53°01' W 005°55'5 9.3
2018-Jun-08 01:30N 53°06' W 005°57'5 9.6
2018-Jun-08 01:00N 53°10' W 005°59'510.2
2018-Jun-08 00:29N 53°15' W 006°01'  
Track history (hours):
 
Tides and Currents Weather Stations Pressure Air Temp Water Temp Dewpoint Dewpoint Depression Visibility Wind Speed Wind Dir Waves Ship Positions

Fluvius Axe

Last reported at 2018-Jun-16 15:04 UTC. Time now 2018-Jun-18 17:38 UTC.
Position N 43°42' W 005°51'.

Length 88 m; draft 3.8 m.

Type: Cargo ship. MMSI: 311000201.

Date/timePositionNaut miles runAvg speedWind from/ knotsBaromVisibWave heightAir tempDewpointWater temp
2018-Jun-16 15:04N 43°42' W 005°51'110.2
2018-Jun-16 14:59N 43°42' W 005°50'610.6
2018-Jun-16 14:28N 43°42' W 005°43'710.7
2018-Jun-16 13:50N 43°41' W 005°33'410.7
2018-Jun-16 13:26N 43°40' W 005°28'510.6
2018-Jun-16 12:59N 43°40' W 005°21'  
2018-Jun-10 07:49N 43°33' W 003°46'311.1
2018-Jun-10 07:30N 43°36' W 003°48'14110.9
2018-Jun-09 18:37N 45°50' W 004°47'111.1
2018-Jun-09 18:30N 45°51' W 004°48'42010.7
2018-Jun-08 03:20N 52°50' W 005°45'310.2
2018-Jun-08 03:00N 52°53' W 005°48'5 9.7
2018-Jun-08 02:30N 52°57' W 005°52'4 8.8
2018-Jun-08 02:00N 53°01' W 005°55'5 9.3
2018-Jun-08 01:30N 53°06' W 005°57'5 9.6
2018-Jun-08 01:00N 53°10' W 005°59'510.2
2018-Jun-08 00:29N 53°15' W 006°01'  

Dump ship's entire track history